sensor_id;sensor_type;location;lat;lon;timestamp;pressure;altitude;pressure_sealevel;temperature;humidity
62124;BME280;48110;47.532;19.078;2022-12-11T00:01:27;98325.56;;;2.73;100.00
62124;BME280;48110;47.532;19.078;2022-12-11T00:04:35;98311.34;;;2.67;100.00
62124;BME280;48110;47.532;19.078;2022-12-11T00:07:41;98306.94;;;2.68;100.00
62124;BME280;48110;47.532;19.078;2022-12-11T00:10:47;98303.53;;;2.59;100.00
62124;BME280;48110;47.532;19.078;2022-12-11T00:13:54;98305.16;;;2.60;100.00
62124;BME280;48110;47.532;19.078;2022-12-11T00:17:03;98283.25;;;2.53;100.00
62124;BME280;48110;47.532;19.078;2022-12-11T00:20:10;98281.00;;;2.50;100.00
62124;BME280;48110;47.532;19.078;2022-12-11T00:23:21;98303.38;;;2.52;100.00
62124;BME280;48110;47.532;19.078;2022-12-11T00:26:26;98285.75;;;2.46;100.00
62124;BME280;48110;47.532;19.078;2022-12-11T00:29:34;98287.69;;;2.44;100.00
62124;BME280;48110;47.532;19.078;2022-12-11T00:32:41;98286.87;;;2.44;100.00
62124;BME280;48110;47.532;19.078;2022-12-11T00:35:50;98290.47;;;2.43;100.00
62124;BME280;48110;47.532;19.078;2022-12-11T00:38:59;98303.44;;;2.36;100.00
62124;BME280;48110;47.532;19.078;2022-12-11T00:42:07;98292.47;;;2.33;100.00
62124;BME280;48110;47.532;19.078;2022-12-11T00:45:14;98284.09;;;2.37;100.00
62124;BME280;48110;47.532;19.078;2022-12-11T00:48:21;98284.44;;;2.34;100.00
62124;BME280;48110;47.532;19.078;2022-12-11T00:51:28;98287.41;;;2.31;100.00
62124;BME280;48110;47.532;19.078;2022-12-11T00:54:35;98281.38;;;2.23;100.00
62124;BME280;48110;47.532;19.078;2022-12-11T00:57:42;98290.22;;;2.22;100.00
62124;BME280;48110;47.532;19.078;2022-12-11T01:00:51;98290.38;;;2.20;100.00
62124;BME280;48110;47.532;19.078;2022-12-11T01:03:57;98290.19;;;2.13;100.00
62124;BME280;48110;47.532;19.078;2022-12-11T01:07:04;98299.22;;;2.11;100.00
62124;BME280;48110;47.532;19.078;2022-12-11T01:10:13;98294.13;;;2.09;100.00
62124;BME280;48110;47.532;19.078;2022-12-11T01:13:30;98281.41;;;2.06;100.00
62124;BME280;48110;47.532;19.078;2022-12-11T01:16:35;98294.78;;;2.03;100.00
62124;BME280;48110;47.532;19.078;2022-12-11T01:19:41;98295.13;;;2.00;100.00
62124;BME280;48110;47.532;19.078;2022-12-11T01:22:50;98317.19;;;1.98;100.00
62124;BME280;48110;47.532;19.078;2022-12-11T01:26:03;98296.09;;;1.99;100.00
62124;BME280;48110;47.532;19.078;2022-12-11T01:29:09;98302.78;;;1.94;100.00
62124;BME280;48110;47.532;19.078;2022-12-11T01:32:18;98298.72;;;1.91;100.00
62124;BME280;48110;47.532;19.078;2022-12-11T01:35:24;98302.81;;;1.86;100.00
62124;BME280;48110;47.532;19.078;2022-12-11T01:38:31;98298.75;;;1.83;100.00
62124;BME280;48110;47.532;19.078;2022-12-11T01:41:43;98311.63;;;1.85;100.00
62124;BME280;48110;47.532;19.078;2022-12-11T01:47:58;98305.59;;;1.76;100.00
62124;BME280;48110;47.532;19.078;2022-12-11T01:51:07;98311.16;;;1.73;100.00
62124;BME280;48110;47.532;19.078;2022-12-11T01:54:14;98316.69;;;1.70;100.00
62124;BME280;48110;47.532;19.078;2022-12-11T01:57:24;98319.78;;;1.65;100.00
62124;BME280;48110;47.532;19.078;2022-12-11T02:00:33;98329.25;;;1.58;100.00
62124;BME280;48110;47.532;19.078;2022-12-11T02:03:40;98331.06;;;1.58;100.00
62124;BME280;48110;47.532;19.078;2022-12-11T02:06:49;98334.16;;;1.61;100.00
62124;BME280;48110;47.532;19.078;2022-12-11T02:09:57;98328.25;;;1.51;100.00
62124;BME280;48110;47.532;19.078;2022-12-11T02:13:08;98322.53;;;1.48;100.00
62124;BME280;48110;47.532;19.078;2022-12-11T02:16:25;98321.72;;;1.47;100.00
62124;BME280;48110;47.532;19.078;2022-12-11T02:26:33;98318.72;;;1.26;100.00
62124;BME280;48110;47.532;19.078;2022-12-11T02:32:55;98323.28;;;1.16;100.00
62124;BME280;48110;47.532;19.078;2022-12-11T02:36:02;98328.81;;;1.13;100.00
62124;BME280;48110;47.532;19.078;2022-12-11T02:39:10;98333.69;;;1.08;100.00
62124;BME280;48110;47.532;19.078;2022-12-11T02:42:19;98323.72;;;1.03;100.00
62124;BME280;48110;47.532;19.078;2022-12-11T02:45:26;98315.25;;;1.01;100.00
62124;BME280;48110;47.532;19.078;2022-12-11T02:48:33;98318.81;;;1.00;100.00
62124;BME280;48110;47.532;19.078;2022-12-11T02:51:41;98317.31;;;0.98;100.00
62124;BME280;48110;47.532;19.078;2022-12-11T02:54:48;98309.31;;;0.91;100.00
62124;BME280;48110;47.532;19.078;2022-12-11T03:01:05;98308.31;;;0.84;100.00
62124;BME280;48110;47.532;19.078;2022-12-11T03:04:12;98307.66;;;0.82;100.00
62124;BME280;48110;47.532;19.078;2022-12-11T03:07:21;98310.41;;;0.80;100.00
62124;BME280;48110;47.532;19.078;2022-12-11T03:10:31;98305.66;;;0.76;100.00
62124;BME280;48110;47.532;19.078;2022-12-11T03:13:39;98298.12;;;0.73;100.00
62124;BME280;48110;47.532;19.078;2022-12-11T03:16:54;98295.38;;;0.74;100.00
62124;BME280;48110;47.532;19.078;2022-12-11T03:20:04;98293.09;;;0.71;100.00
62124;BME280;48110;47.532;19.078;2022-12-11T03:23:17;98295.16;;;0.68;100.00
62124;BME280;48110;47.532;19.078;2022-12-11T03:26:25;98299.94;;;0.72;100.00
62124;BME280;48110;47.532;19.078;2022-12-11T03:29:35;98306.63;;;0.75;100.00
62124;BME280;48110;47.532;19.078;2022-12-11T03:32:50;98303.53;;;0.71;100.00
62124;BME280;48110;47.532;19.078;2022-12-11T03:36:06;98304.00;;;0.67;100.00
62124;BME280;48110;47.532;19.078;2022-12-11T03:39:15;98295.69;;;0.71;100.00
62124;BME280;48110;47.532;19.078;2022-12-11T03:42:24;98297.28;;;0.64;100.00
62124;BME280;48110;47.532;19.078;2022-12-11T03:45:33;98285.87;;;0.65;100.00
62124;BME280;48110;47.532;19.078;2022-12-11T03:48:45;98286.34;;;0.61;100.00
62124;BME280;48110;47.532;19.078;2022-12-11T03:51:53;98301.03;;;0.62;100.00
62124;BME280;48110;47.532;19.078;2022-12-11T03:55:02;98316.50;;;0.63;100.00
62124;BME280;48110;47.532;19.078;2022-12-11T03:58:10;98290.59;;;0.62;100.00
62124;BME280;48110;47.532;19.078;2022-12-11T04:01:17;98290.41;;;0.63;100.00
62124;BME280;48110;47.532;19.078;2022-12-11T04:04:26;98307.38;;;0.59;100.00
62124;BME280;48110;47.532;19.078;2022-12-11T04:07:36;98302.63;;;0.55;100.00
62124;BME280;48110;47.532;19.078;2022-12-11T04:10:44;98301.16;;;0.52;100.00
62124;BME280;48110;47.532;19.078;2022-12-11T04:13:51;98313.22;;;0.53;100.00
62124;BME280;48110;47.532;19.078;2022-12-11T04:17:17;98300.47;;;0.50;100.00
62124;BME280;48110;47.532;19.078;2022-12-11T04:20:43;98316.13;;;0.50;100.00
62124;BME280;48110;47.532;19.078;2022-12-11T04:24:07;98309.94;;;0.51;100.00
62124;BME280;48110;47.532;19.078;2022-12-11T04:27:28;98319.56;;;0.51;100.00
62124;BME280;48110;47.532;19.078;2022-12-11T04:30:54;98313.38;;;0.52;100.00
62124;BME280;48110;47.532;19.078;2022-12-11T04:33:59;98328.19;;;0.51;100.00
62124;BME280;48110;47.532;19.078;2022-12-11T04:37:15;98317.91;;;0.50;100.00
62124;BME280;48110;47.532;19.078;2022-12-11T04:40:21;98337.00;;;0.50;100.00
62124;BME280;48110;47.532;19.078;2022-12-11T04:43:28;98331.78;;;0.50;100.00
62124;BME280;48110;47.532;19.078;2022-12-11T04:46:34;98338.13;;;0.48;100.00
62124;BME280;48110;47.532;19.078;2022-12-11T04:49:40;98337.31;;;0.47;100.00
62124;BME280;48110;47.532;19.078;2022-12-11T04:52:45;98349.22;;;0.50;100.00
62124;BME280;48110;47.532;19.078;2022-12-11T04:55:53;98351.81;;;0.50;100.00
62124;BME280;48110;47.532;19.078;2022-12-11T04:58:59;98356.75;;;0.53;100.00
62124;BME280;48110;47.532;19.078;2022-12-11T05:02:08;98368.16;;;0.52;100.00
62124;BME280;48110;47.532;19.078;2022-12-11T05:05:14;98374.03;;;0.54;100.00
62124;BME280;48110;47.532;19.078;2022-12-11T05:08:22;98367.84;;;0.55;100.00
62124;BME280;48110;47.532;19.078;2022-12-11T05:11:27;98375.53;;;0.56;100.00
62124;BME280;48110;47.532;19.078;2022-12-11T05:14:34;98381.56;;;0.57;100.00
62124;BME280;48110;47.532;19.078;2022-12-11T05:17:39;98398.03;;;0.57;100.00
62124;BME280;48110;47.532;19.078;2022-12-11T05:20:59;98379.59;;;0.59;100.00
62124;BME280;48110;47.532;19.078;2022-12-11T05:24:05;98382.53;;;0.56;100.00
62124;BME280;48110;47.532;19.078;2022-12-11T05:27:12;98391.03;;;0.58;100.00
62124;BME280;48110;47.532;19.078;2022-12-11T05:30:21;98396.91;;;0.60;100.00
62124;BME280;48110;47.532;19.078;2022-12-11T05:33:28;98395.63;;;0.64;100.00
62124;BME280;48110;47.532;19.078;2022-12-11T05:36:35;98391.53;;;0.61;100.00
62124;BME280;48110;47.532;19.078;2022-12-11T05:39:44;98398.41;;;0.62;100.00
62124;BME280;48110;47.532;19.078;2022-12-11T05:42:51;98389.22;;;0.58;100.00
62124;BME280;48110;47.532;19.078;2022-12-11T05:46:03;98389.75;;;0.62;100.00
62124;BME280;48110;47.532;19.078;2022-12-11T05:49:09;98378.34;;;0.63;100.00
62124;BME280;48110;47.532;19.078;2022-12-11T05:52:22;98388.78;;;0.63;100.00
62124;BME280;48110;47.532;19.078;2022-12-11T05:55:28;98374.38;;;0.59;100.00
62124;BME280;48110;47.532;19.078;2022-12-11T05:58:38;98387.44;;;0.59;100.00
62124;BME280;48110;47.532;19.078;2022-12-11T06:01:45;98396.25;;;0.58;100.00
62124;BME280;48110;47.532;19.078;2022-12-11T06:04:53;98391.81;;;0.58;100.00
62124;BME280;48110;47.532;19.078;2022-12-11T06:08:02;98400.94;;;0.54;100.00
62124;BME280;48110;47.532;19.078;2022-12-11T06:11:08;98403.91;;;0.59;100.00
62124;BME280;48110;47.532;19.078;2022-12-11T06:14:17;98412.88;;;0.57;100.00
62124;BME280;48110;47.532;19.078;2022-12-11T06:17:23;98418.09;;;0.57;100.00
62124;BME280;48110;47.532;19.078;2022-12-11T06:20:30;98424.13;;;0.57;100.00
62124;BME280;48110;47.532;19.078;2022-12-11T06:23:38;98430.97;;;0.58;100.00
62124;BME280;48110;47.532;19.078;2022-12-11T06:26:44;98435.38;;;0.58;100.00
62124;BME280;48110;47.532;19.078;2022-12-11T06:29:48;98438.78;;;0.58;100.00
62124;BME280;48110;47.532;19.078;2022-12-11T06:32:56;98455.13;;;0.60;100.00
62124;BME280;48110;47.532;19.078;2022-12-11T06:36:06;98449.06;;;0.60;100.00
62124;BME280;48110;47.532;19.078;2022-12-11T06:39:13;98458.91;;;0.66;100.00
62124;BME280;48110;47.532;19.078;2022-12-11T06:42:25;98458.78;;;0.67;100.00
62124;BME280;48110;47.532;19.078;2022-12-11T06:45:37;98474.25;;;0.69;100.00
62124;BME280;48110;47.532;19.078;2022-12-11T06:48:44;98463.47;;;0.64;100.00
62124;BME280;48110;47.532;19.078;2022-12-11T06:51:51;98486.81;;;0.65;100.00
62124;BME280;48110;47.532;19.078;2022-12-11T06:54:58;98480.25;;;0.61;100.00
62124;BME280;48110;47.532;19.078;2022-12-11T06:58:07;98507.31;;;0.60;100.00
62124;BME280;48110;47.532;19.078;2022-12-11T07:01:20;98505.19;;;0.64;100.00
62124;BME280;48110;47.532;19.078;2022-12-11T07:04:27;98501.78;;;0.63;100.00
62124;BME280;48110;47.532;19.078;2022-12-11T07:07:35;98514.03;;;0.63;100.00
62124;BME280;48110;47.532;19.078;2022-12-11T07:10:42;98521.53;;;0.66;100.00
62124;BME280;48110;47.532;19.078;2022-12-11T07:13:51;98515.63;;;0.64;100.00
62124;BME280;48110;47.532;19.078;2022-12-11T07:16:59;98526.31;;;0.70;100.00
62124;BME280;48110;47.532;19.078;2022-12-11T07:20:06;98527.78;;;0.73;100.00
62124;BME280;48110;47.532;19.078;2022-12-11T07:23:13;98536.28;;;0.75;100.00
62124;BME280;48110;47.532;19.078;2022-12-11T07:26:20;98535.84;;;0.79;100.00
62124;BME280;48110;47.532;19.078;2022-12-11T07:29:28;98539.41;;;0.78;100.00
62124;BME280;48110;47.532;19.078;2022-12-11T07:32:35;98557.31;;;0.91;100.00
62124;BME280;48110;47.532;19.078;2022-12-11T07:35:45;98553.56;;;0.94;100.00
62124;BME280;48110;47.532;19.078;2022-12-11T07:38:53;98553.78;;;1.00;100.00
62124;BME280;48110;47.532;19.078;2022-12-11T07:41:59;98556.97;;;1.12;100.00
62124;BME280;48110;47.532;19.078;2022-12-11T07:45:08;98572.25;;;1.24;100.00
62124;BME280;48110;47.532;19.078;2022-12-11T07:48:15;98573.91;;;1.25;100.00
62124;BME280;48110;47.532;19.078;2022-12-11T07:51:23;98585.56;;;1.39;100.00
62124;BME280;48110;47.532;19.078;2022-12-11T07:54:35;98582.34;;;1.45;100.00
62124;BME280;48110;47.532;19.078;2022-12-11T07:57:42;98593.00;;;1.52;100.00
62124;BME280;48110;47.532;19.078;2022-12-11T08:00:47;98595.75;;;1.50;100.00
62124;BME280;48110;47.532;19.078;2022-12-11T08:03:55;98606.00;;;1.44;100.00
62124;BME280;48110;47.532;19.078;2022-12-11T08:07:02;98630.00;;;1.39;100.00
62124;BME280;48110;47.532;19.078;2022-12-11T08:10:09;98616.09;;;1.39;100.00
62124;BME280;48110;47.532;19.078;2022-12-11T08:13:15;98618.34;;;1.34;100.00
62124;BME280;48110;47.532;19.078;2022-12-11T08:16:23;98615.22;;;1.30;100.00
62124;BME280;48110;47.532;19.078;2022-12-11T08:19:29;98633.44;;;1.40;100.00
62124;BME280;48110;47.532;19.078;2022-12-11T08:22:36;98638.13;;;1.36;100.00
62124;BME280;48110;47.532;19.078;2022-12-11T08:25:42;98632.88;;;1.36;100.00
62124;BME280;48110;47.532;19.078;2022-12-11T08:28:51;98648.41;;;1.38;100.00
62124;BME280;48110;47.532;19.078;2022-12-11T08:31:58;98646.31;;;1.41;100.00
62124;BME280;48110;47.532;19.078;2022-12-11T08:35:07;98643.56;;;1.43;100.00
62124;BME280;48110;47.532;19.078;2022-12-11T08:38:15;98653.56;;;1.47;100.00
62124;BME280;48110;47.532;19.078;2022-12-11T08:41:29;98651.41;;;1.43;100.00
62124;BME280;48110;47.532;19.078;2022-12-11T08:44:36;98646.69;;;1.46;100.00
62124;BME280;48110;47.532;19.078;2022-12-11T08:47:43;98667.06;;;1.43;100.00
62124;BME280;48110;47.532;19.078;2022-12-11T08:50:51;98660.47;;;1.30;100.00
62124;BME280;48110;47.532;19.078;2022-12-11T08:53:56;98668.34;;;1.39;100.00
62124;BME280;48110;47.532;19.078;2022-12-11T08:57:02;98668.72;;;1.44;100.00
62124;BME280;48110;47.532;19.078;2022-12-11T09:00:11;98679.62;;;1.39;100.00
62124;BME280;48110;47.532;19.078;2022-12-11T09:03:20;98695.13;;;1.41;100.00
62124;BME280;48110;47.532;19.078;2022-12-11T09:06:26;98699.56;;;1.40;100.00
62124;BME280;48110;47.532;19.078;2022-12-11T09:09:30;98703.34;;;1.46;100.00
62124;BME280;48110;47.532;19.078;2022-12-11T09:12:40;98694.47;;;1.39;100.00
62124;BME280;48110;47.532;19.078;2022-12-11T09:15:43;98700.91;;;1.44;100.00
62124;BME280;48110;47.532;19.078;2022-12-11T09:18:47;98713.41;;;1.41;100.00
62124;BME280;48110;47.532;19.078;2022-12-11T09:21:56;98711.25;;;1.36;100.00
62124;BME280;48110;47.532;19.078;2022-12-11T09:25:02;98697.75;;;1.41;100.00
62124;BME280;48110;47.532;19.078;2022-12-11T09:28:08;98700.91;;;1.44;100.00
62124;BME280;48110;47.532;19.078;2022-12-11T09:31:20;98700.72;;;1.46;100.00
62124;BME280;48110;47.532;19.078;2022-12-11T09:34:29;98696.50;;;1.45;100.00
62124;BME280;48110;47.532;19.078;2022-12-11T09:37:38;98696.19;;;1.48;100.00
62124;BME280;48110;47.532;19.078;2022-12-11T09:40:42;98693.66;;;1.38;100.00
62124;BME280;48110;47.532;19.078;2022-12-11T09:46:52;98698.75;;;1.40;100.00
62124;BME280;48110;47.532;19.078;2022-12-11T09:53:15;98700.91;;;1.44;100.00
62124;BME280;48110;47.532;19.078;2022-12-11T09:56:30;98713.78;;;1.46;100.00
62124;BME280;48110;47.532;19.078;2022-12-11T09:59:40;98695.50;;;1.46;100.00
62124;BME280;48110;47.532;19.078;2022-12-11T10:06:14;98697.97;;;1.47;100.00
62124;BME280;48110;47.532;19.078;2022-12-11T10:15:48;98671.28;;;1.61;100.00
62124;BME280;48110;47.532;19.078;2022-12-11T10:18:57;98670.31;;;1.62;100.00
62124;BME280;48110;47.532;19.078;2022-12-11T10:22:16;98682.87;;;1.59;100.00
62124;BME280;48110;47.532;19.078;2022-12-11T10:25:26;98699.31;;;1.51;100.00
62124;BME280;48110;47.532;19.078;2022-12-11T10:28:36;98695.28;;;1.57;100.00
62124;BME280;48110;47.532;19.078;2022-12-11T10:31:45;98704.03;;;1.48;100.00
62124;BME280;48110;47.532;19.078;2022-12-11T10:34:58;98716.41;;;1.46;100.00
62124;BME280;48110;47.532;19.078;2022-12-11T10:38:13;98716.50;;;1.54;100.00
62124;BME280;48110;47.532;19.078;2022-12-11T10:41:23;98711.47;;;1.60;100.00
62124;BME280;48110;47.532;19.078;2022-12-11T10:44:35;98702.28;;;1.56;100.00
62124;BME280;48110;47.532;19.078;2022-12-11T10:47:40;98723.38;;;1.55;100.00
62124;BME280;48110;47.532;19.078;2022-12-11T10:50:54;98719.38;;;1.51;100.00
62124;BME280;48110;47.532;19.078;2022-12-11T10:54:07;98724.94;;;1.48;100.00
62124;BME280;48110;47.532;19.078;2022-12-11T10:57:25;98743.34;;;1.46;100.00
62124;BME280;48110;47.532;19.078;2022-12-11T11:03:42;98741.06;;;1.43;100.00
62124;BME280;48110;47.532;19.078;2022-12-11T11:10:25;98738.69;;;1.50;100.00
62124;BME280;48110;47.532;19.078;2022-12-11T11:13:32;98741.28;;;1.50;100.00
62124;BME280;48110;47.532;19.078;2022-12-11T11:16:40;98745.53;;;1.51;100.00
62124;BME280;48110;47.532;19.078;2022-12-11T11:19:50;98733.72;;;1.47;100.00
62124;BME280;48110;47.532;19.078;2022-12-11T11:22:59;98746.88;;;1.55;100.00
62124;BME280;48110;47.532;19.078;2022-12-11T11:26:07;98735.44;;;1.56;100.00
62124;BME280;48110;47.532;19.078;2022-12-11T11:29:21;98725.06;;;1.64;100.00
62124;BME280;48110;47.532;19.078;2022-12-11T11:35:49;98721.00;;;1.69;100.00
62124;BME280;48110;47.532;19.078;2022-12-11T11:39:03;98725.72;;;1.84;100.00
62124;BME280;48110;47.532;19.078;2022-12-11T11:42:16;98732.66;;;1.75;100.00
62124;BME280;48110;47.532;19.078;2022-12-11T11:45:33;98758.50;;;1.78;100.00
62124;BME280;48110;47.532;19.078;2022-12-11T11:51:56;98763.38;;;1.73;100.00
62124;BME280;48110;47.532;19.078;2022-12-11T11:55:12;98760.94;;;1.80;100.00
62124;BME280;48110;47.532;19.078;2022-12-11T11:58:26;98748.06;;;1.78;100.00
62124;BME280;48110;47.532;19.078;2022-12-11T12:01:36;98765.00;;;1.74;100.00
62124;BME280;48110;47.532;19.078;2022-12-11T12:04:45;98772.69;;;1.75;100.00
62124;BME280;48110;47.532;19.078;2022-12-11T12:27:44;98800.09;;;1.89;100.00
62124;BME280;48110;47.532;19.078;2022-12-11T12:37:33;98795.25;;;1.77;100.00
62124;BME280;48110;47.532;19.078;2022-12-11T12:47:25;98796.75;;;1.79;100.00
62124;BME280;48110;47.532;19.078;2022-12-11T12:50:39;98791.00;;;1.75;100.00
62124;BME280;48110;47.532;19.078;2022-12-11T12:54:03;98802.78;;;1.80;100.00
62124;BME280;48110;47.532;19.078;2022-12-11T12:57:17;98809.06;;;1.87;100.00
62124;BME280;48110;47.532;19.078;2022-12-11T13:03:36;98823.56;;;1.81;100.00
62124;BME280;48110;47.532;19.078;2022-12-11T13:06:55;98840.00;;;1.91;100.00
62124;BME280;48110;47.532;19.078;2022-12-11T13:10:20;98843.88;;;1.87;100.00
62124;BME280;48110;47.532;19.078;2022-12-11T13:13:31;98851.34;;;1.82;100.00
62124;BME280;48110;47.532;19.078;2022-12-11T13:16:38;98858.88;;;1.85;100.00
62124;BME280;48110;47.532;19.078;2022-12-11T13:19:46;98855.16;;;1.88;100.00
62124;BME280;48110;47.532;19.078;2022-12-11T13:26:05;98868.91;;;1.90;100.00
62124;BME280;48110;47.532;19.078;2022-12-11T13:29:27;98869.41;;;1.75;100.00
62124;BME280;48110;47.532;19.078;2022-12-11T13:32:33;98866.22;;;1.82;100.00
62124;BME280;48110;47.532;19.078;2022-12-11T13:35:39;98863.09;;;1.78;100.00
62124;BME280;48110;47.532;19.078;2022-12-11T13:38:45;98880.41;;;1.79;100.00
62124;BME280;48110;47.532;19.078;2022-12-11T13:41:55;98885.78;;;1.78;100.00
62124;BME280;48110;47.532;19.078;2022-12-11T13:45:02;98883.84;;;1.80;100.00
62124;BME280;48110;47.532;19.078;2022-12-11T13:48:18;98886.22;;;1.73;100.00
62124;BME280;48110;47.532;19.078;2022-12-11T13:51:27;98894.81;;;1.65;100.00
62124;BME280;48110;47.532;19.078;2022-12-11T13:54:36;98894.16;;;1.63;100.00
62124;BME280;48110;47.532;19.078;2022-12-11T13:57:52;98885.91;;;1.58;100.00
62124;BME280;48110;47.532;19.078;2022-12-11T14:01:09;98890.31;;;1.58;100.00
62124;BME280;48110;47.532;19.078;2022-12-11T14:04:18;98895.16;;;1.53;100.00
62124;BME280;48110;47.532;19.078;2022-12-11T14:07:26;98897.91;;;1.51;100.00
62124;BME280;48110;47.532;19.078;2022-12-11T14:10:36;98911.87;;;1.60;100.00
62124;BME280;48110;47.532;19.078;2022-12-11T14:13:43;98916.47;;;1.58;100.00
62124;BME280;48110;47.532;19.078;2022-12-11T14:16:51;98926.53;;;1.53;100.00
62124;BME280;48110;47.532;19.078;2022-12-11T14:19:59;98929.13;;;1.53;100.00
62124;BME280;48110;47.532;19.078;2022-12-11T14:23:12;98938.38;;;1.47;100.00
62124;BME280;48110;47.532;19.078;2022-12-11T14:26:21;98940.16;;;1.47;100.00
62124;BME280;48110;47.532;19.078;2022-12-11T14:29:30;98938.94;;;1.41;100.00
62124;BME280;48110;47.532;19.078;2022-12-11T14:32:37;98946.12;;;1.39;100.00
62124;BME280;48110;47.532;19.078;2022-12-11T14:35:46;98968.44;;;1.34;100.00
62124;BME280;48110;47.532;19.078;2022-12-11T14:38:59;98968.12;;;1.37;100.00
62124;BME280;48110;47.532;19.078;2022-12-11T14:42:13;98956.47;;;1.31;100.00
62124;BME280;48110;47.532;19.078;2022-12-11T14:45:32;98978.63;;;1.27;100.00
62124;BME280;48110;47.532;19.078;2022-12-11T14:48:46;98972.84;;;1.23;100.00
62124;BME280;48110;47.532;19.078;2022-12-11T14:51:59;98965.41;;;1.28;100.00
62124;BME280;48110;47.532;19.078;2022-12-11T14:55:14;98978.09;;;1.23;100.00
62124;BME280;48110;47.532;19.078;2022-12-11T14:58:20;98985.53;;;1.18;100.00
62124;BME280;48110;47.532;19.078;2022-12-11T15:01:27;98974.38;;;1.16;100.00
62124;BME280;48110;47.532;19.078;2022-12-11T15:04:31;98970.72;;;1.09;100.00
62124;BME280;48110;47.532;19.078;2022-12-11T15:07:39;98982.94;;;1.09;100.00
62124;BME280;48110;47.532;19.078;2022-12-11T15:14:12;98992.44;;;1.10;100.00
62124;BME280;48110;47.532;19.078;2022-12-11T15:17:17;99001.91;;;1.11;100.00
62124;BME280;48110;47.532;19.078;2022-12-11T15:20:26;99004.13;;;1.06;100.00
62124;BME280;48110;47.532;19.078;2022-12-11T15:23:33;99014.28;;;1.09;100.00
62124;BME280;48110;47.532;19.078;2022-12-11T15:26:45;99000.94;;;1.02;100.00
62124;BME280;48110;47.532;19.078;2022-12-11T15:29:53;99015.97;;;1.00;100.00
62124;BME280;48110;47.532;19.078;2022-12-11T15:36:23;99011.28;;;1.04;100.00
62124;BME280;48110;47.532;19.078;2022-12-11T15:39:30;99006.47;;;0.99;100.00
62124;BME280;48110;47.532;19.078;2022-12-11T15:42:37;99014.19;;;0.91;100.00
62124;BME280;48110;47.532;19.078;2022-12-11T15:45:47;99015.16;;;0.90;100.00
62124;BME280;48110;47.532;19.078;2022-12-11T15:48:54;99008.41;;;0.87;100.00
62124;BME280;48110;47.532;19.078;2022-12-11T15:52:03;99013.19;;;0.92;100.00
62124;BME280;48110;47.532;19.078;2022-12-11T15:55:09;99010.22;;;0.87;100.00
62124;BME280;48110;47.532;19.078;2022-12-11T15:58:19;99026.13;;;0.84;100.00
62124;BME280;48110;47.532;19.078;2022-12-11T16:01:23;99023.94;;;0.79;100.00
62124;BME280;48110;47.532;19.078;2022-12-11T16:04:28;99022.88;;;0.82;100.00
62124;BME280;48110;47.532;19.078;2022-12-11T16:07:33;99023.66;;;0.82;100.00
62124;BME280;48110;47.532;19.078;2022-12-11T16:10:40;99034.09;;;0.73;100.00
62124;BME280;48110;47.532;19.078;2022-12-11T16:13:46;99028.50;;;0.77;100.00
62124;BME280;48110;47.532;19.078;2022-12-11T16:16:53;99041.28;;;0.71;100.00
62124;BME280;48110;47.532;19.078;2022-12-11T16:19:56;99042.94;;;0.72;100.00
62124;BME280;48110;47.532;19.078;2022-12-11T16:23:05;99056.53;;;0.66;100.00
62124;BME280;48110;47.532;19.078;2022-12-11T16:26:08;99051.31;;;0.66;100.00
62124;BME280;48110;47.532;19.078;2022-12-11T16:29:12;99048.41;;;0.69;100.00
62124;BME280;48110;47.532;19.078;2022-12-11T16:32:15;99041.16;;;0.63;100.00
62124;BME280;48110;47.532;19.078;2022-12-11T16:35:21;99047.44;;;0.60;100.00
62124;BME280;48110;47.532;19.078;2022-12-11T16:38:26;99048.97;;;0.63;100.00
62124;BME280;48110;47.532;19.078;2022-12-11T16:41:30;99053.09;;;0.65;100.00
62124;BME280;48110;47.532;19.078;2022-12-11T16:44:34;99046.38;;;0.63;100.00
62124;BME280;48110;47.532;19.078;2022-12-11T16:47:47;99059.78;;;0.58;100.00
62124;BME280;48110;47.532;19.078;2022-12-11T16:50:53;99065.72;;;0.51;100.00
62124;BME280;48110;47.532;19.078;2022-12-11T16:54:02;99067.38;;;0.52;100.00
62124;BME280;48110;47.532;19.078;2022-12-11T16:57:06;99068.59;;;0.57;100.00
62124;BME280;48110;47.532;19.078;2022-12-11T17:00:11;99066.66;;;0.50;100.00
62124;BME280;48110;47.532;19.078;2022-12-11T17:03:14;99067.38;;;0.52;100.00
62124;BME280;48110;47.532;19.078;2022-12-11T17:06:21;99061.72;;;0.47;100.00
62124;BME280;48110;47.532;19.078;2022-12-11T17:09:25;99076.44;;;0.48;100.00
62124;BME280;48110;47.532;19.078;2022-12-11T17:12:31;99063.22;;;0.49;100.00
62124;BME280;48110;47.532;19.078;2022-12-11T17:15:40;99050.34;;;0.48;100.00
62124;BME280;48110;47.532;19.078;2022-12-11T17:18:47;99052.66;;;0.41;100.00
62124;BME280;48110;47.532;19.078;2022-12-11T17:21:52;99059.41;;;0.43;100.00
62124;BME280;48110;47.532;19.078;2022-12-11T17:24:56;99054.56;;;0.39;100.00
62124;BME280;48110;47.532;19.078;2022-12-11T17:28:01;99067.19;;;0.34;100.00
62124;BME280;48110;47.532;19.078;2022-12-11T17:31:12;99070.78;;;0.33;100.00
62124;BME280;48110;47.532;19.078;2022-12-11T17:34:15;99069.13;;;0.32;100.00
62124;BME280;48110;47.532;19.078;2022-12-11T17:37:19;99072.44;;;0.43;100.00
62124;BME280;48110;47.532;19.078;2022-12-11T17:40:27;99075.84;;;0.34;100.00
62124;BME280;48110;47.532;19.078;2022-12-11T17:43:32;99083.53;;;0.36;100.00
62124;BME280;48110;47.532;19.078;2022-12-11T17:46:39;99073.94;;;0.36;100.00
62124;BME280;48110;47.532;19.078;2022-12-11T17:49:44;99078.19;;;0.37;100.00
62124;BME280;48110;47.532;19.078;2022-12-11T17:52:47;99072.81;;;0.39;100.00
62124;BME280;48110;47.532;19.078;2022-12-11T17:55:54;99076.25;;;0.39;100.00
62124;BME280;48110;47.532;19.078;2022-12-11T17:58:59;99079.97;;;0.27;100.00